sensor_id;sensor_type;location;lat;lon;timestamp;P1;durP1;ratioP1;P2;durP2;ratioP2
70866;SDS011;58487;53.474;49.470;2023-06-14T00:02:10;7.63;;;2.60;;
70866;SDS011;58487;53.474;49.470;2023-06-14T00:04:36;4.95;;;2.50;;
70866;SDS011;58487;53.474;49.470;2023-06-14T00:07:05;8.48;;;2.75;;
70866;SDS011;58487;53.474;49.470;2023-06-14T00:09:33;6.30;;;2.60;;
70866;SDS011;58487;53.474;49.470;2023-06-14T00:12:00;6.70;;;2.50;;
70866;SDS011;58487;53.474;49.470;2023-06-14T00:14:26;7.22;;;2.70;;
70866;SDS011;58487;53.474;49.470;2023-06-14T00:16:52;5.35;;;2.60;;
70866;SDS011;58487;53.474;49.470;2023-06-14T00:19:24;4.43;;;2.30;;
70866;SDS011;58487;53.474;49.470;2023-06-14T00:21:52;5.10;;;2.78;;
70866;SDS011;58487;53.474;49.470;2023-06-14T00:24:19;8.10;;;2.60;;
70866;SDS011;58487;53.474;49.470;2023-06-14T00:26:45;5.65;;;2.67;;
70866;SDS011;58487;53.474;49.470;2023-06-14T00:29:11;7.50;;;2.45;;
70866;SDS011;58487;53.474;49.470;2023-06-14T00:31:37;5.70;;;2.70;;
70866;SDS011;58487;53.474;49.470;2023-06-14T00:34:04;5.75;;;2.60;;
70866;SDS011;58487;53.474;49.470;2023-06-14T00:36:30;5.20;;;2.50;;
70866;SDS011;58487;53.474;49.470;2023-06-14T00:38:56;6.45;;;2.40;;
70866;SDS011;58487;53.474;49.470;2023-06-14T00:41:22;7.03;;;2.60;;
70866;SDS011;58487;53.474;49.470;2023-06-14T00:43:48;6.00;;;2.53;;
70866;SDS011;58487;53.474;49.470;2023-06-14T00:46:15;6.75;;;2.88;;
70866;SDS011;58487;53.474;49.470;2023-06-14T00:48:41;6.53;;;2.90;;
70866;SDS011;58487;53.474;49.470;2023-06-14T00:51:07;7.38;;;2.72;;
70866;SDS011;58487;53.474;49.470;2023-06-14T00:53:34;5.85;;;2.95;;
70866;SDS011;58487;53.474;49.470;2023-06-14T00:56:01;7.15;;;2.60;;
70866;SDS011;58487;53.474;49.470;2023-06-14T00:58:28;7.97;;;2.97;;
70866;SDS011;58487;53.474;49.470;2023-06-14T01:00:55;6.30;;;2.80;;
70866;SDS011;58487;53.474;49.470;2023-06-14T01:03:21;5.35;;;2.45;;
70866;SDS011;58487;53.474;49.470;2023-06-14T01:05:49;7.38;;;3.17;;
70866;SDS011;58487;53.474;49.470;2023-06-14T01:11:22;6.78;;;3.05;;
70866;SDS011;58487;53.474;49.470;2023-06-14T01:13:58;5.27;;;2.67;;
70866;SDS011;58487;53.474;49.470;2023-06-14T01:16:28;5.47;;;2.80;;
70866;SDS011;58487;53.474;49.470;2023-06-14T01:18:55;6.32;;;3.15;;
70866;SDS011;58487;53.474;49.470;2023-06-14T01:21:22;5.53;;;2.80;;
70866;SDS011;58487;53.474;49.470;2023-06-14T01:23:50;6.82;;;2.95;;
70866;SDS011;58487;53.474;49.470;2023-06-14T01:26:20;5.83;;;2.87;;
70866;SDS011;58487;53.474;49.470;2023-06-14T01:28:48;10.00;;;3.15;;
70866;SDS011;58487;53.474;49.470;2023-06-14T01:31:17;6.57;;;3.25;;
70866;SDS011;58487;53.474;49.470;2023-06-14T01:33:47;7.10;;;2.67;;
70866;SDS011;58487;53.474;49.470;2023-06-14T01:36:16;6.45;;;3.00;;
70866;SDS011;58487;53.474;49.470;2023-06-14T01:38:45;6.23;;;2.70;;
70866;SDS011;58487;53.474;49.470;2023-06-14T01:41:14;6.35;;;2.80;;
70866;SDS011;58487;53.474;49.470;2023-06-14T01:43:41;5.93;;;3.05;;
70866;SDS011;58487;53.474;49.470;2023-06-14T01:46:08;7.47;;;2.90;;
70866;SDS011;58487;53.474;49.470;2023-06-14T01:48:35;6.40;;;2.80;;
70866;SDS011;58487;53.474;49.470;2023-06-14T01:51:02;7.23;;;2.60;;
70866;SDS011;58487;53.474;49.470;2023-06-14T01:53:28;6.78;;;2.80;;
70866;SDS011;58487;53.474;49.470;2023-06-14T01:55:54;7.97;;;3.35;;
70866;SDS011;58487;53.474;49.470;2023-06-14T01:58:20;6.00;;;2.40;;
70866;SDS011;58487;53.474;49.470;2023-06-14T02:00:46;6.97;;;2.65;;
70866;SDS011;58487;53.474;49.470;2023-06-14T02:03:13;6.00;;;2.80;;
70866;SDS011;58487;53.474;49.470;2023-06-14T02:05:40;6.30;;;2.78;;
70866;SDS011;58487;53.474;49.470;2023-06-14T02:08:07;11.38;;;3.45;;
70866;SDS011;58487;53.474;49.470;2023-06-14T02:10:33;5.65;;;3.20;;
70866;SDS011;58487;53.474;49.470;2023-06-14T02:12:59;6.18;;;2.90;;
70866;SDS011;58487;53.474;49.470;2023-06-14T02:15:26;6.80;;;3.00;;
70866;SDS011;58487;53.474;49.470;2023-06-14T02:17:59;5.78;;;2.60;;
70866;SDS011;58487;53.474;49.470;2023-06-14T02:20:29;7.80;;;3.00;;
70866;SDS011;58487;53.474;49.470;2023-06-14T02:22:56;6.22;;;3.03;;
70866;SDS011;58487;53.474;49.470;2023-06-14T02:25:22;6.30;;;3.15;;
70866;SDS011;58487;53.474;49.470;2023-06-14T02:27:48;7.70;;;2.77;;
70866;SDS011;58487;53.474;49.470;2023-06-14T02:30:15;14.77;;;3.00;;
70866;SDS011;58487;53.474;49.470;2023-06-14T02:32:41;8.50;;;2.97;;
70866;SDS011;58487;53.474;49.470;2023-06-14T02:35:08;5.45;;;2.72;;
70866;SDS011;58487;53.474;49.470;2023-06-14T02:37:35;8.88;;;3.50;;
70866;SDS011;58487;53.474;49.470;2023-06-14T02:40:01;6.87;;;3.30;;
70866;SDS011;58487;53.474;49.470;2023-06-14T02:42:28;8.63;;;3.10;;
70866;SDS011;58487;53.474;49.470;2023-06-14T02:44:54;8.20;;;3.47;;
70866;SDS011;58487;53.474;49.470;2023-06-14T02:47:20;5.95;;;3.13;;
70866;SDS011;58487;53.474;49.470;2023-06-14T02:49:46;9.02;;;3.60;;
70866;SDS011;58487;53.474;49.470;2023-06-14T02:52:12;8.20;;;3.20;;
70866;SDS011;58487;53.474;49.470;2023-06-14T02:54:39;8.68;;;3.00;;
70866;SDS011;58487;53.474;49.470;2023-06-14T02:57:05;7.43;;;3.20;;
70866;SDS011;58487;53.474;49.470;2023-06-14T02:59:33;10.07;;;3.05;;
70866;SDS011;58487;53.474;49.470;2023-06-14T03:02:00;7.20;;;3.17;;
70866;SDS011;58487;53.474;49.470;2023-06-14T03:04:27;10.63;;;3.07;;
70866;SDS011;58487;53.474;49.470;2023-06-14T03:06:54;6.70;;;3.20;;
70866;SDS011;58487;53.474;49.470;2023-06-14T03:09:21;12.35;;;3.30;;
70866;SDS011;58487;53.474;49.470;2023-06-14T03:11:47;9.80;;;3.63;;
70866;SDS011;58487;53.474;49.470;2023-06-14T03:14:13;9.57;;;3.40;;
70866;SDS011;58487;53.474;49.470;2023-06-14T03:16:40;5.63;;;2.90;;
70866;SDS011;58487;53.474;49.470;2023-06-14T03:19:07;9.50;;;3.20;;
70866;SDS011;58487;53.474;49.470;2023-06-14T03:21:33;7.72;;;2.90;;
70866;SDS011;58487;53.474;49.470;2023-06-14T03:24:00;8.57;;;3.22;;
70866;SDS011;58487;53.474;49.470;2023-06-14T03:26:29;7.57;;;3.33;;
70866;SDS011;58487;53.474;49.470;2023-06-14T03:28:56;7.27;;;2.83;;
70866;SDS011;58487;53.474;49.470;2023-06-14T03:31:23;7.05;;;3.03;;
70866;SDS011;58487;53.474;49.470;2023-06-14T03:33:49;8.40;;;3.10;;
70866;SDS011;58487;53.474;49.470;2023-06-14T03:36:15;8.88;;;3.13;;
70866;SDS011;58487;53.474;49.470;2023-06-14T03:38:43;6.03;;;3.38;;
70866;SDS011;58487;53.474;49.470;2023-06-14T03:41:09;6.27;;;3.20;;
70866;SDS011;58487;53.474;49.470;2023-06-14T03:43:35;8.77;;;3.60;;
70866;SDS011;58487;53.474;49.470;2023-06-14T03:46:01;6.45;;;3.17;;
70866;SDS011;58487;53.474;49.470;2023-06-14T03:48:28;6.82;;;2.88;;
70866;SDS011;58487;53.474;49.470;2023-06-14T03:50:54;10.00;;;3.45;;
70866;SDS011;58487;53.474;49.470;2023-06-14T03:53:21;7.50;;;3.33;;
70866;SDS011;58487;53.474;49.470;2023-06-14T03:55:49;5.78;;;3.17;;
70866;SDS011;58487;53.474;49.470;2023-06-14T03:58:18;8.90;;;3.35;;
70866;SDS011;58487;53.474;49.470;2023-06-14T04:00:44;6.82;;;3.17;;
70866;SDS011;58487;53.474;49.470;2023-06-14T04:03:11;7.18;;;3.40;;
70866;SDS011;58487;53.474;49.470;2023-06-14T04:05:39;7.30;;;3.40;;
70866;SDS011;58487;53.474;49.470;2023-06-14T04:08:08;15.88;;;4.72;;
70866;SDS011;58487;53.474;49.470;2023-06-14T04:10:35;11.50;;;4.10;;
70866;SDS011;58487;53.474;49.470;2023-06-14T04:13:02;10.95;;;3.92;;
70866;SDS011;58487;53.474;49.470;2023-06-14T04:15:28;10.48;;;4.03;;
70866;SDS011;58487;53.474;49.470;2023-06-14T04:17:54;11.97;;;4.17;;
70866;SDS011;58487;53.474;49.470;2023-06-14T04:20:22;8.20;;;3.92;;
70866;SDS011;58487;53.474;49.470;2023-06-14T04:22:52;8.02;;;4.00;;
70866;SDS011;58487;53.474;49.470;2023-06-14T04:25:18;9.68;;;4.30;;
70866;SDS011;58487;53.474;49.470;2023-06-14T04:27:46;9.20;;;4.18;;
70866;SDS011;58487;53.474;49.470;2023-06-14T04:30:12;9.67;;;4.37;;
70866;SDS011;58487;53.474;49.470;2023-06-14T04:32:39;9.02;;;4.43;;
70866;SDS011;58487;53.474;49.470;2023-06-14T04:35:06;13.60;;;4.35;;
70866;SDS011;58487;53.474;49.470;2023-06-14T04:37:33;10.85;;;4.30;;
70866;SDS011;58487;53.474;49.470;2023-06-14T04:40:00;10.38;;;4.30;;
70866;SDS011;58487;53.474;49.470;2023-06-14T04:42:26;13.33;;;3.87;;
70866;SDS011;58487;53.474;49.470;2023-06-14T04:44:56;8.40;;;3.92;;
70866;SDS011;58487;53.474;49.470;2023-06-14T04:47:23;9.70;;;4.13;;
70866;SDS011;58487;53.474;49.470;2023-06-14T04:49:56;15.85;;;10.93;;
70866;SDS011;58487;53.474;49.470;2023-06-14T04:52:23;13.75;;;5.60;;
70866;SDS011;58487;53.474;49.470;2023-06-14T04:54:52;20.53;;;5.00;;
70866;SDS011;58487;53.474;49.470;2023-06-14T04:57:20;27.20;;;4.43;;
70866;SDS011;58487;53.474;49.470;2023-06-14T04:59:48;9.70;;;4.07;;
70866;SDS011;58487;53.474;49.470;2023-06-14T05:02:21;8.18;;;3.92;;
70866;SDS011;58487;53.474;49.470;2023-06-14T05:04:51;8.15;;;4.00;;
70866;SDS011;58487;53.474;49.470;2023-06-14T05:07:17;9.87;;;4.40;;
70866;SDS011;58487;53.474;49.470;2023-06-14T05:09:44;10.18;;;4.05;;
70866;SDS011;58487;53.474;49.470;2023-06-14T05:12:11;10.05;;;4.30;;
70866;SDS011;58487;53.474;49.470;2023-06-14T05:14:37;8.98;;;4.03;;
70866;SDS011;58487;53.474;49.470;2023-06-14T05:17:04;11.52;;;4.30;;
70866;SDS011;58487;53.474;49.470;2023-06-14T05:19:31;7.57;;;3.90;;
70866;SDS011;58487;53.474;49.470;2023-06-14T05:21:57;9.38;;;3.60;;
70866;SDS011;58487;53.474;49.470;2023-06-14T05:24:23;9.43;;;3.67;;
70866;SDS011;58487;53.474;49.470;2023-06-14T05:26:50;7.05;;;3.60;;
70866;SDS011;58487;53.474;49.470;2023-06-14T05:29:16;6.95;;;3.63;;
70866;SDS011;58487;53.474;49.470;2023-06-14T05:31:42;6.97;;;3.90;;
70866;SDS011;58487;53.474;49.470;2023-06-14T05:34:09;8.25;;;3.88;;
70866;SDS011;58487;53.474;49.470;2023-06-14T05:36:35;10.07;;;3.75;;
70866;SDS011;58487;53.474;49.470;2023-06-14T05:39:02;8.07;;;4.10;;
70866;SDS011;58487;53.474;49.470;2023-06-14T05:41:30;8.57;;;4.00;;
70866;SDS011;58487;53.474;49.470;2023-06-14T05:43:56;9.23;;;4.30;;
70866;SDS011;58487;53.474;49.470;2023-06-14T05:46:23;8.55;;;4.40;;
70866;SDS011;58487;53.474;49.470;2023-06-14T05:48:54;8.27;;;4.40;;
70866;SDS011;58487;53.474;49.470;2023-06-14T05:51:21;8.40;;;4.57;;
70866;SDS011;58487;53.474;49.470;2023-06-14T05:53:50;11.43;;;5.40;;
70866;SDS011;58487;53.474;49.470;2023-06-14T05:56:17;15.47;;;6.07;;
70866;SDS011;58487;53.474;49.470;2023-06-14T05:58:43;16.35;;;6.22;;
70866;SDS011;58487;53.474;49.470;2023-06-14T06:01:10;10.93;;;5.47;;
70866;SDS011;58487;53.474;49.470;2023-06-14T06:03:37;15.63;;;6.43;;
70866;SDS011;58487;53.474;49.470;2023-06-14T06:06:03;12.00;;;5.85;;
70866;SDS011;58487;53.474;49.470;2023-06-14T06:08:29;10.10;;;5.63;;
70866;SDS011;58487;53.474;49.470;2023-06-14T06:10:57;10.68;;;5.18;;
70866;SDS011;58487;53.474;49.470;2023-06-14T06:13:23;11.98;;;5.22;;
70866;SDS011;58487;53.474;49.470;2023-06-14T06:15:49;12.30;;;5.03;;
70866;SDS011;58487;53.474;49.470;2023-06-14T06:18:17;9.68;;;4.88;;
70866;SDS011;58487;53.474;49.470;2023-06-14T06:20:43;14.27;;;5.30;;
70866;SDS011;58487;53.474;49.470;2023-06-14T06:23:09;10.93;;;4.70;;
70866;SDS011;58487;53.474;49.470;2023-06-14T06:25:36;13.82;;;4.90;;
70866;SDS011;58487;53.474;49.470;2023-06-14T06:28:02;9.02;;;4.85;;
70866;SDS011;58487;53.474;49.470;2023-06-14T06:30:29;10.45;;;5.47;;
70866;SDS011;58487;53.474;49.470;2023-06-14T06:32:55;11.30;;;5.00;;
70866;SDS011;58487;53.474;49.470;2023-06-14T06:35:21;9.57;;;4.88;;
70866;SDS011;58487;53.474;49.470;2023-06-14T06:37:47;9.30;;;4.80;;
70866;SDS011;58487;53.474;49.470;2023-06-14T06:40:14;8.07;;;4.55;;
70866;SDS011;58487;53.474;49.470;2023-06-14T06:42:41;10.77;;;4.20;;
70866;SDS011;58487;53.474;49.470;2023-06-14T06:45:07;11.93;;;4.73;;
70866;SDS011;58487;53.474;49.470;2023-06-14T06:47:33;8.52;;;4.10;;
70866;SDS011;58487;53.474;49.470;2023-06-14T06:50:00;7.43;;;3.88;;
70866;SDS011;58487;53.474;49.470;2023-06-14T06:52:26;6.97;;;3.90;;
70866;SDS011;58487;53.474;49.470;2023-06-14T06:54:52;8.32;;;4.28;;
70866;SDS011;58487;53.474;49.470;2023-06-14T06:57:20;7.20;;;3.80;;
70866;SDS011;58487;53.474;49.470;2023-06-14T06:59:49;7.15;;;3.60;;
70866;SDS011;58487;53.474;49.470;2023-06-14T07:02:16;8.95;;;4.05;;
70866;SDS011;58487;53.474;49.470;2023-06-14T07:04:42;7.63;;;3.55;;
70866;SDS011;58487;53.474;49.470;2023-06-14T07:07:08;7.53;;;3.63;;
70866;SDS011;58487;53.474;49.470;2023-06-14T07:09:38;12.53;;;3.53;;
70866;SDS011;58487;53.474;49.470;2023-06-14T07:12:04;8.10;;;3.75;;
70866;SDS011;58487;53.474;49.470;2023-06-14T07:14:30;8.15;;;3.60;;
70866;SDS011;58487;53.474;49.470;2023-06-14T07:16:57;11.85;;;3.58;;
70866;SDS011;58487;53.474;49.470;2023-06-14T07:19:23;7.68;;;3.78;;
70866;SDS011;58487;53.474;49.470;2023-06-14T07:21:49;12.47;;;3.70;;
70866;SDS011;58487;53.474;49.470;2023-06-14T07:24:15;7.97;;;3.90;;
70866;SDS011;58487;53.474;49.470;2023-06-14T07:26:42;9.02;;;3.53;;
70866;SDS011;58487;53.474;49.470;2023-06-14T07:29:08;10.35;;;3.50;;
70866;SDS011;58487;53.474;49.470;2023-06-14T07:31:34;11.77;;;4.05;;
70866;SDS011;58487;53.474;49.470;2023-06-14T07:34:00;11.37;;;3.40;;
70866;SDS011;58487;53.474;49.470;2023-06-14T07:36:26;9.02;;;3.95;;
70866;SDS011;58487;53.474;49.470;2023-06-14T07:38:53;10.07;;;4.32;;
70866;SDS011;58487;53.474;49.470;2023-06-14T07:41:19;9.20;;;4.10;;
70866;SDS011;58487;53.474;49.470;2023-06-14T07:43:45;12.40;;;3.22;;
70866;SDS011;58487;53.474;49.470;2023-06-14T07:46:12;9.93;;;3.40;;
70866;SDS011;58487;53.474;49.470;2023-06-14T07:48:38;6.63;;;3.67;;
70866;SDS011;58487;53.474;49.470;2023-06-14T07:51:04;8.20;;;3.38;;
70866;SDS011;58487;53.474;49.470;2023-06-14T07:53:31;8.05;;;3.55;;
70866;SDS011;58487;53.474;49.470;2023-06-14T07:55:57;8.70;;;3.58;;
70866;SDS011;58487;53.474;49.470;2023-06-14T07:58:23;14.03;;;3.80;;
70866;SDS011;58487;53.474;49.470;2023-06-14T08:00:50;9.77;;;3.72;;
70866;SDS011;58487;53.474;49.470;2023-06-14T08:03:16;14.40;;;4.25;;
70866;SDS011;58487;53.474;49.470;2023-06-14T08:05:43;7.65;;;3.33;;
70866;SDS011;58487;53.474;49.470;2023-06-14T08:08:10;7.82;;;3.70;;
70866;SDS011;58487;53.474;49.470;2023-06-14T08:10:36;12.43;;;3.27;;
70866;SDS011;58487;53.474;49.470;2023-06-14T08:13:02;8.32;;;3.40;;
70866;SDS011;58487;53.474;49.470;2023-06-14T08:15:28;7.55;;;3.25;;
70866;SDS011;58487;53.474;49.470;2023-06-14T08:17:55;7.15;;;3.30;;
70866;SDS011;58487;53.474;49.470;2023-06-14T08:20:21;9.43;;;3.58;;
70866;SDS011;58487;53.474;49.470;2023-06-14T08:22:48;10.13;;;3.37;;
70866;SDS011;58487;53.474;49.470;2023-06-14T08:25:14;9.05;;;3.10;;
70866;SDS011;58487;53.474;49.470;2023-06-14T08:27:40;7.07;;;4.18;;
70866;SDS011;58487;53.474;49.470;2023-06-14T08:30:07;10.27;;;3.83;;
70866;SDS011;58487;53.474;49.470;2023-06-14T08:32:34;8.65;;;3.55;;
70866;SDS011;58487;53.474;49.470;2023-06-14T08:35:00;9.47;;;4.30;;
70866;SDS011;58487;53.474;49.470;2023-06-14T08:37:26;10.90;;;3.97;;
70866;SDS011;58487;53.474;49.470;2023-06-14T08:39:52;7.70;;;3.85;;
70866;SDS011;58487;53.474;49.470;2023-06-14T08:42:19;7.07;;;3.65;;
70866;SDS011;58487;53.474;49.470;2023-06-14T08:44:47;9.93;;;3.65;;
70866;SDS011;58487;53.474;49.470;2023-06-14T08:47:13;10.70;;;3.83;;
70866;SDS011;58487;53.474;49.470;2023-06-14T08:49:41;6.75;;;3.70;;
70866;SDS011;58487;53.474;49.470;2023-06-14T08:52:12;8.70;;;4.00;;
70866;SDS011;58487;53.474;49.470;2023-06-14T08:54:44;7.18;;;3.50;;
70866;SDS011;58487;53.474;49.470;2023-06-14T08:57:11;8.48;;;3.53;;
70866;SDS011;58487;53.474;49.470;2023-06-14T08:59:44;9.00;;;4.33;;
70866;SDS011;58487;53.474;49.470;2023-06-14T09:02:15;6.20;;;3.50;;
70866;SDS011;58487;53.474;49.470;2023-06-14T09:04:43;9.30;;;4.50;;
70866;SDS011;58487;53.474;49.470;2023-06-14T09:07:10;10.93;;;4.20;;
70866;SDS011;58487;53.474;49.470;2023-06-14T09:09:38;12.98;;;4.53;;
70866;SDS011;58487;53.474;49.470;2023-06-14T09:12:07;8.93;;;3.90;;
70866;SDS011;58487;53.474;49.470;2023-06-14T09:14:36;9.73;;;4.30;;
70866;SDS011;58487;53.474;49.470;2023-06-14T09:17:05;8.43;;;4.20;;
70866;SDS011;58487;53.474;49.470;2023-06-14T09:19:32;9.93;;;3.90;;
70866;SDS011;58487;53.474;49.470;2023-06-14T09:22:00;10.63;;;4.05;;
70866;SDS011;58487;53.474;49.470;2023-06-14T09:24:27;10.20;;;4.17;;
70866;SDS011;58487;53.474;49.470;2023-06-14T09:26:53;10.48;;;3.80;;
70866;SDS011;58487;53.474;49.470;2023-06-14T09:29:19;9.10;;;4.00;;
70866;SDS011;58487;53.474;49.470;2023-06-14T09:31:46;10.52;;;3.75;;
70866;SDS011;58487;53.474;49.470;2023-06-14T09:34:13;10.32;;;3.60;;
70866;SDS011;58487;53.474;49.470;2023-06-14T09:36:42;11.93;;;3.87;;
70866;SDS011;58487;53.474;49.470;2023-06-14T09:39:08;9.52;;;4.13;;
70866;SDS011;58487;53.474;49.470;2023-06-14T09:41:35;8.40;;;3.35;;
70866;SDS011;58487;53.474;49.470;2023-06-14T09:44:06;8.25;;;3.40;;
70866;SDS011;58487;53.474;49.470;2023-06-14T09:46:35;9.35;;;3.50;;
70866;SDS011;58487;53.474;49.470;2023-06-14T09:49:04;7.00;;;3.80;;
70866;SDS011;58487;53.474;49.470;2023-06-14T09:51:31;14.82;;;3.92;;
70866;SDS011;58487;53.474;49.470;2023-06-14T09:54:01;7.80;;;3.70;;
70866;SDS011;58487;53.474;49.470;2023-06-14T09:56:34;12.55;;;3.95;;
70866;SDS011;58487;53.474;49.470;2023-06-14T09:59:04;9.57;;;4.00;;
70866;SDS011;58487;53.474;49.470;2023-06-14T10:01:32;10.80;;;4.63;;
70866;SDS011;58487;53.474;49.470;2023-06-14T10:04:03;9.05;;;4.07;;
70866;SDS011;58487;53.474;49.470;2023-06-14T10:06:32;8.27;;;4.40;;
70866;SDS011;58487;53.474;49.470;2023-06-14T10:09:03;9.23;;;4.00;;
70866;SDS011;58487;53.474;49.470;2023-06-14T10:11:32;15.40;;;5.28;;
70866;SDS011;58487;53.474;49.470;2023-06-14T10:14:00;12.33;;;4.23;;
70866;SDS011;58487;53.474;49.470;2023-06-14T10:16:32;8.73;;;4.00;;
70866;SDS011;58487;53.474;49.470;2023-06-14T10:24:43;8.48;;;3.92;;
70866;SDS011;58487;53.474;49.470;2023-06-14T10:27:12;8.17;;;3.43;;
70866;SDS011;58487;53.474;49.470;2023-06-14T10:32:18;8.13;;;4.05;;
70866;SDS011;58487;53.474;49.470;2023-06-14T10:34:55;11.20;;;3.50;;
70866;SDS011;58487;53.474;49.470;2023-06-14T10:37:22;8.75;;;3.65;;
70866;SDS011;58487;53.474;49.470;2023-06-14T10:39:50;7.37;;;3.17;;
70866;SDS011;58487;53.474;49.470;2023-06-14T10:42:17;10.57;;;4.00;;
70866;SDS011;58487;53.474;49.470;2023-06-14T10:44:55;7.82;;;3.70;;
70866;SDS011;58487;53.474;49.470;2023-06-14T10:47:25;8.23;;;2.53;;
70866;SDS011;58487;53.474;49.470;2023-06-14T10:50:03;7.20;;;3.10;;
70866;SDS011;58487;53.474;49.470;2023-06-14T10:52:36;7.17;;;3.30;;
70866;SDS011;58487;53.474;49.470;2023-06-14T10:55:16;8.45;;;3.03;;
70866;SDS011;58487;53.474;49.470;2023-06-14T11:00:12;9.65;;;3.40;;
70866;SDS011;58487;53.474;49.470;2023-06-14T11:05:14;8.50;;;3.33;;
70866;SDS011;58487;53.474;49.470;2023-06-14T11:13:08;9.15;;;3.75;;
70866;SDS011;58487;53.474;49.470;2023-06-14T11:15:35;13.18;;;3.70;;
70866;SDS011;58487;53.474;49.470;2023-06-14T11:18:03;5.73;;;3.30;;
70866;SDS011;58487;53.474;49.470;2023-06-14T11:20:31;8.27;;;3.85;;
70866;SDS011;58487;53.474;49.470;2023-06-14T11:22:59;6.63;;;3.50;;
70866;SDS011;58487;53.474;49.470;2023-06-14T11:25:25;7.57;;;3.40;;
70866;SDS011;58487;53.474;49.470;2023-06-14T11:27:53;9.30;;;3.80;;
70866;SDS011;58487;53.474;49.470;2023-06-14T11:30:21;7.47;;;3.70;;
70866;SDS011;58487;53.474;49.470;2023-06-14T11:32:51;7.32;;;3.33;;
70866;SDS011;58487;53.474;49.470;2023-06-14T11:35:19;8.20;;;3.28;;
70866;SDS011;58487;53.474;49.470;2023-06-14T11:37:49;8.13;;;3.40;;
70866;SDS011;58487;53.474;49.470;2023-06-14T11:40:19;8.15;;;3.60;;
70866;SDS011;58487;53.474;49.470;2023-06-14T11:42:45;10.27;;;3.70;;
70866;SDS011;58487;53.474;49.470;2023-06-14T11:45:11;6.93;;;3.35;;
70866;SDS011;58487;53.474;49.470;2023-06-14T11:47:38;18.55;;;3.70;;
70866;SDS011;58487;53.474;49.470;2023-06-14T11:50:06;17.50;;;9.80;;
70866;SDS011;58487;53.474;49.470;2023-06-14T11:52:34;7.20;;;3.70;;
70866;SDS011;58487;53.474;49.470;2023-06-14T11:55:02;9.63;;;3.40;;
70866;SDS011;58487;53.474;49.470;2023-06-14T11:57:33;10.27;;;3.60;;
70866;SDS011;58487;53.474;49.470;2023-06-14T12:00:04;6.88;;;3.70;;
70866;SDS011;58487;53.474;49.470;2023-06-14T12:02:38;9.43;;;3.55;;
70866;SDS011;58487;53.474;49.470;2023-06-14T12:05:06;11.50;;;4.15;;
70866;SDS011;58487;53.474;49.470;2023-06-14T12:07:36;11.83;;;3.10;;
70866;SDS011;58487;53.474;49.470;2023-06-14T12:10:03;6.70;;;3.40;;
70866;SDS011;58487;53.474;49.470;2023-06-14T12:12:37;6.18;;;3.45;;
70866;SDS011;58487;53.474;49.470;2023-06-14T12:15:05;7.15;;;3.55;;
70866;SDS011;58487;53.474;49.470;2023-06-14T12:17:33;13.55;;;3.88;;
70866;SDS011;58487;53.474;49.470;2023-06-14T12:20:10;6.93;;;3.63;;
70866;SDS011;58487;53.474;49.470;2023-06-14T12:22:46;8.07;;;3.42;;
70866;SDS011;58487;53.474;49.470;2023-06-14T12:25:35;9.43;;;3.80;;
70866;SDS011;58487;53.474;49.470;2023-06-14T12:28:05;10.07;;;3.75;;
70866;SDS011;58487;53.474;49.470;2023-06-14T12:30:32;6.57;;;3.40;;
70866;SDS011;58487;53.474;49.470;2023-06-14T12:33:01;11.57;;;3.77;;
70866;SDS011;58487;53.474;49.470;2023-06-14T12:35:28;7.80;;;3.47;;
70866;SDS011;58487;53.474;49.470;2023-06-14T12:37:54;9.80;;;4.43;;
70866;SDS011;58487;53.474;49.470;2023-06-14T12:40:20;8.52;;;3.95;;
70866;SDS011;58487;53.474;49.470;2023-06-14T12:42:46;7.88;;;3.30;;
70866;SDS011;58487;53.474;49.470;2023-06-14T12:45:13;8.70;;;3.27;;
70866;SDS011;58487;53.474;49.470;2023-06-14T12:47:39;8.65;;;3.47;;
70866;SDS011;58487;53.474;49.470;2023-06-14T12:50:05;9.30;;;3.50;;
70866;SDS011;58487;53.474;49.470;2023-06-14T12:52:32;6.70;;;3.10;;
70866;SDS011;58487;53.474;49.470;2023-06-14T12:55:04;7.18;;;3.53;;
70866;SDS011;58487;53.474;49.470;2023-06-14T12:57:32;5.97;;;3.40;;
70866;SDS011;58487;53.474;49.470;2023-06-14T12:59:59;11.35;;;3.20;;
70866;SDS011;58487;53.474;49.470;2023-06-14T13:02:26;7.13;;;3.33;;
70866;SDS011;58487;53.474;49.470;2023-06-14T13:04:53;8.10;;;3.33;;
70866;SDS011;58487;53.474;49.470;2023-06-14T13:07:21;7.57;;;3.90;;
70866;SDS011;58487;53.474;49.470;2023-06-14T13:09:47;7.77;;;3.50;;
70866;SDS011;58487;53.474;49.470;2023-06-14T13:12:14;8.18;;;3.70;;
70866;SDS011;58487;53.474;49.470;2023-06-14T13:14:40;11.35;;;4.00;;
70866;SDS011;58487;53.474;49.470;2023-06-14T13:17:10;8.88;;;3.50;;
70866;SDS011;58487;53.474;49.470;2023-06-14T13:19:36;10.27;;;4.00;;
70866;SDS011;58487;53.474;49.470;2023-06-14T13:22:03;7.77;;;3.60;;
70866;SDS011;58487;53.474;49.470;2023-06-14T13:24:29;10.30;;;3.50;;
70866;SDS011;58487;53.474;49.470;2023-06-14T13:26:56;6.72;;;3.40;;
70866;SDS011;58487;53.474;49.470;2023-06-14T13:29:23;5.65;;;3.10;;
70866;SDS011;58487;53.474;49.470;2023-06-14T13:31:50;9.95;;;3.42;;
70866;SDS011;58487;53.474;49.470;2023-06-14T13:34:17;7.87;;;3.40;;
70866;SDS011;58487;53.474;49.470;2023-06-14T13:36:43;9.43;;;3.55;;
70866;SDS011;58487;53.474;49.470;2023-06-14T13:39:09;7.35;;;3.20;;
70866;SDS011;58487;53.474;49.470;2023-06-14T13:41:36;8.02;;;3.60;;
70866;SDS011;58487;53.474;49.470;2023-06-14T13:44:04;8.40;;;3.75;;
70866;SDS011;58487;53.474;49.470;2023-06-14T13:46:30;8.70;;;3.30;;
70866;SDS011;58487;53.474;49.470;2023-06-14T13:48:57;6.13;;;3.03;;
70866;SDS011;58487;53.474;49.470;2023-06-14T13:51:27;8.05;;;3.15;;
70866;SDS011;58487;53.474;49.470;2023-06-14T13:53:54;6.65;;;3.30;;
70866;SDS011;58487;53.474;49.470;2023-06-14T13:56:21;9.13;;;3.40;;
70866;SDS011;58487;53.474;49.470;2023-06-14T13:58:50;6.40;;;3.13;;
70866;SDS011;58487;53.474;49.470;2023-06-14T14:01:17;6.95;;;3.22;;
70866;SDS011;58487;53.474;49.470;2023-06-14T14:03:46;6.63;;;3.38;;
70866;SDS011;58487;53.474;49.470;2023-06-14T14:06:12;9.77;;;3.50;;
70866;SDS011;58487;53.474;49.470;2023-06-14T14:08:39;9.60;;;3.50;;
70866;SDS011;58487;53.474;49.470;2023-06-14T14:11:05;7.47;;;3.53;;
70866;SDS011;58487;53.474;49.470;2023-06-14T14:13:31;7.50;;;3.28;;
70866;SDS011;58487;53.474;49.470;2023-06-14T14:15:58;12.57;;;3.10;;
70866;SDS011;58487;53.474;49.470;2023-06-14T14:18:24;16.42;;;3.50;;
70866;SDS011;58487;53.474;49.470;2023-06-14T14:20:51;7.50;;;3.70;;
70866;SDS011;58487;53.474;49.470;2023-06-14T14:23:17;7.17;;;3.33;;
70866;SDS011;58487;53.474;49.470;2023-06-14T14:25:45;8.30;;;3.45;;
70866;SDS011;58487;53.474;49.470;2023-06-14T14:28:14;10.02;;;3.88;;
70866;SDS011;58487;53.474;49.470;2023-06-14T14:30:42;8.88;;;3.45;;
70866;SDS011;58487;53.474;49.470;2023-06-14T14:33:08;8.13;;;3.45;;
70866;SDS011;58487;53.474;49.470;2023-06-14T14:35:34;8.13;;;3.77;;
70866;SDS011;58487;53.474;49.470;2023-06-14T14:38:01;10.20;;;3.40;;
70866;SDS011;58487;53.474;49.470;2023-06-14T14:40:28;6.43;;;3.50;;
70866;SDS011;58487;53.474;49.470;2023-06-14T14:42:55;8.95;;;3.88;;
70866;SDS011;58487;53.474;49.470;2023-06-14T14:45:21;8.82;;;3.65;;
70866;SDS011;58487;53.474;49.470;2023-06-14T14:47:47;8.50;;;3.80;;
70866;SDS011;58487;53.474;49.470;2023-06-14T14:50:13;8.77;;;3.70;;
70866;SDS011;58487;53.474;49.470;2023-06-14T14:52:40;11.45;;;3.92;;
70866;SDS011;58487;53.474;49.470;2023-06-14T14:55:06;10.15;;;3.50;;